Milwaukee, Wisconsin
Traffic Map
Current Weather Conditions
Milwaukee, Wisconsin
Overcast
Overcast
33°
Feels Like: 33°
Wind Chill: 33° Ceiling: 9000
Heat Index: 33° Visibility: 10mi
Dew Point: 24° Wind: 3mph
Humidity: 70% Direction: 150° (SSE)
Pressure: 29.77in Gusts: 0mph
Raw Report DataKMKE 290752Z 15003KT 10SM OVC090 01/M04 A2977 RMK AO2 SLP087 T00061044
Traffic Incident Summary
Active as of:
Severity:
Category:
InformationThere was an issue retrieving the traffic information for this location. Please try a different location or try again shortly.
Advertisements
Track Severe Weather on mobile